Time;durP1;ratioP1;P1;durP2;ratioP2;P2;SDS_P1;SDS_P2;PMS_P1;PMS_P2;Temp;Humidity;BMP_temperature;BMP_pressure;BME280_temperature;BME280_humidity;BME280_pressure;Samples;Min_cycle;Max_cycle;Signal;HPM_P1;HPM_P2
2022/08/16 00:00:05;;;;;;;9.05;4.30;;;;;;;21.96;100.00;98821.19;1697223;82;21007;-72
2022/08/16 00:02:32;;;;;;;10.58;3.72;;;;;;;21.98;100.00;98827.14;1726998;82;21466;-72
2022/08/16 00:04:59;;;;;;;10.70;4.42;;;;;;;21.95;100.00;98834.81;1706940;82;21019;-72
2022/08/16 00:07:29;;;;;;;10.48;3.70;;;;;;;21.92;100.00;98827.25;1711865;82;21505;-72
2022/08/16 00:09:57;;;;;;;10.50;4.05;;;;;;;21.94;100.00;98833.78;1716592;82;21553;-72
2022/08/16 00:12:24;;;;;;;8.38;4.28;;;;;;;21.98;100.00;98834.66;1708420;83;21498;-72
2022/08/16 00:14:51;;;;;;;8.78;4.22;;;;;;;22.00;100.00;98835.87;1717901;82;21042;-72
2022/08/16 00:17:17;;;;;;;8.40;4.05;;;;;;;22.03;100.00;98837.13;1652566;85;21641;-72
2022/08/16 00:19:43;;;;;;;9.93;4.12;;;;;;;22.04;100.00;98837.33;1715209;82;22025;-72
2022/08/16 00:22:10;;;;;;;10.88;4.40;;;;;;;22.00;100.00;98841.42;1721533;82;21514;-71
2022/08/16 00:24:36;;;;;;;11.08;4.17;;;;;;;21.94;100.00;98844.88;1694268;82;21059;-72
2022/08/16 00:27:03;;;;;;;9.05;4.00;;;;;;;21.86;100.00;98835.59;1662306;84;21112;-71
2022/08/16 00:29:29;;;;;;;7.17;4.17;;;;;;;21.82;100.00;98845.22;1692992;83;21026;-71
2022/08/16 00:31:56;;;;;;;9.20;4.00;;;;;;;21.78;100.00;98838.84;1678546;83;21071;-72
2022/08/16 00:34:24;;;;;;;9.20;4.05;;;;;;;21.75;100.00;98841.55;1654845;85;21031;-71
2022/08/16 00:36:50;;;;;;;9.73;4.72;;;;;;;21.70;100.00;98843.22;1708499;83;21461;-71
2022/08/16 00:39:17;;;;;;;9.03;4.25;;;;;;;21.62;100.00;98842.85;1729306;82;21544;-72
2022/08/16 00:41:46;;;;;;;6.42;4.05;;;;;;;21.52;100.00;98849.80;1717202;82;21106;-72
2022/08/16 00:44:12;;;;;;;11.83;3.90;;;;;;;21.44;100.00;98845.27;1734102;82;21066;-71
2022/08/16 00:47:00;;;;;;;9.38;4.10;;;;;;;21.44;100.00;98853.58;1722581;82;21065;-72
2022/08/16 00:49:27;;;;;;;13.00;4.33;;;;;;;21.45;100.00;98850.23;1721248;82;21042;-71
2022/08/16 00:51:54;;;;;;;6.65;3.67;;;;;;;21.42;100.00;98852.34;1719314;82;21576;-71
2022/08/16 00:54:24;;;;;;;10.05;4.20;;;;;;;21.37;100.00;98853.43;1723800;82;21406;-72
2022/08/16 00:56:50;;;;;;;9.13;4.03;;;;;;;21.40;100.00;98864.38;1702081;82;21053;-71
2022/08/16 00:59:20;;;;;;;10.63;4.40;;;;;;;21.40;100.00;98858.23;1732485;82;21096;-72
2022/08/16 01:01:46;;;;;;;9.58;4.05;;;;;;;21.39;100.00;98844.20;1730299;82;21051;-72
2022/08/16 01:04:16;;;;;;;9.28;3.90;;;;;;;21.38;100.00;98856.43;1723724;82;21003;-71
2022/08/16 01:06:42;;;;;;;9.55;3.80;;;;;;;21.42;100.00;98857.88;1679742;84;21038;-72
2022/08/16 01:09:09;;;;;;;7.03;3.87;;;;;;;21.52;100.00;98854.52;1722341;82;21601;-72
2022/08/16 01:11:36;;;;;;;9.73;4.30;;;;;;;21.58;100.00;98855.83;1721616;82;21056;-72
2022/08/16 01:14:14;;;;;;;8.85;4.15;;;;;;;21.63;100.00;98861.08;1719835;83;21027;-72
2022/08/16 01:16:41;;;;;;;8.10;4.22;;;;;;;21.65;100.00;98864.27;1719216;82;21083;-71
2022/08/16 01:19:32;;;;;;;10.65;3.65;;;;;;;21.71;100.00;98865.60;1724083;82;21117;-72
2022/08/16 01:22:10;;;;;;;9.75;4.08;;;;;;;21.77;100.00;98858.00;1722094;82;21060;-72
2022/08/16 01:24:44;;;;;;;6.28;3.60;;;;;;;21.83;100.00;98858.49;1688021;84;21003;-72
2022/08/16 01:27:19;;;;;;;8.63;3.90;;;;;;;21.87;100.00;98857.17;1685902;84;21069;-71
2022/08/16 01:30:08;;;;;;;9.23;4.00;;;;;;;21.92;100.00;98860.50;1704267;83;21086;-72
2022/08/16 01:32:37;;;;;;;8.13;3.90;;;;;;;21.95;100.00;98853.41;1714725;82;21419;-71
2022/08/16 01:35:08;;;;;;;5.80;3.77;;;;;;;21.94;100.00;98841.52;1727189;82;21502;-72
2022/08/16 01:37:41;;;;;;;10.20;4.05;;;;;;;21.99;100.00;98837.07;1734661;82;21471;-72
2022/08/16 01:43:42;;;;;;;9.05;4.00;;;;;;;22.19;100.00;98846.11;1804271;79;22983;-71
2022/08/16 01:46:29;;;;;;;11.43;3.95;;;;;;;22.11;100.00;98853.50;1740614;82;20994;-74
2022/08/16 01:49:07;;;;;;;7.35;4.10;;;;;;;22.10;100.00;98852.50;1763979;80;21110;-73
2022/08/16 01:51:33;;;;;;;7.65;4.08;;;;;;;22.06;100.00;98840.55;1746550;80;21328;-73
2022/08/16 01:54:00;;;;;;;7.85;4.10;;;;;;;22.05;100.00;98835.59;1729780;82;21090;-73
2022/08/16 01:56:28;;;;;;;13.08;4.00;;;;;;;22.08;100.00;98831.27;1751682;82;20983;-73
2022/08/16 01:58:58;;;;;;;9.95;4.58;;;;;;;22.06;100.00;98826.69;1755106;80;21102;-74
2022/08/16 02:01:26;;;;;;;9.70;4.15;;;;;;;21.92;100.00;98828.63;1674614;85;20992;-73
2022/08/16 02:03:52;;;;;;;9.58;4.05;;;;;;;21.75;100.00;98832.63;1683891;84;21659;-73
2022/08/16 02:06:19;;;;;;;11.65;4.28;;;;;;;21.64;100.00;98839.95;1698127;84;21050;-73
2022/08/16 02:08:46;;;;;;;10.88;4.05;;;;;;;21.57;100.00;98835.66;1693849;82;21022;-73
2022/08/16 02:11:13;;;;;;;10.00;4.10;;;;;;;21.46;100.00;98831.88;1686661;83;21899;-74
2022/08/16 02:13:40;;;;;;;9.85;4.00;;;;;;;21.38;100.00;98839.02;1689216;84;21090;-74
2022/08/16 02:16:07;;;;;;;11.35;3.90;;;;;;;21.36;100.00;98835.81;1706692;84;21066;-74
2022/08/16 02:18:33;;;;;;;10.88;4.30;;;;;;;21.34;100.00;98823.14;1707490;84;21161;-74
2022/08/16 02:21:00;;;;;;;7.85;4.28;;;;;;;21.25;100.00;98829.48;1704415;82;21617;-74
2022/08/16 02:23:26;;;;;;;7.62;4.00;;;;;;;21.09;100.00;98827.31;1693046;84;21557;-74
2022/08/16 02:25:54;;;;;;;8.13;3.80;;;;;;;20.98;100.00;98822.13;1692021;84;21050;-72
2022/08/16 02:28:24;;;;;;;8.43;4.30;;;;;;;20.94;100.00;98819.09;1686838;84;21755;-70
2022/08/16 02:30:52;;;;;;;8.88;4.00;;;;;;;20.95;100.00;98810.98;1705804;82;20990;-74
2022/08/16 02:33:20;;;;;;;11.88;4.20;;;;;;;20.92;100.00;98804.23;1709040;84;22159;-73
2022/08/16 02:35:47;;;;;;;9.25;4.47;;;;;;;20.90;100.00;98802.42;1705222;84;20970;-72
2022/08/16 02:38:13;;;;;;;6.95;3.80;;;;;;;20.91;100.00;98792.93;1672331;84;21089;-74
2022/08/16 02:40:40;;;;;;;10.80;3.98;;;;;;;20.99;100.00;98786.39;1711630;82;21466;-76
2022/08/16 02:43:06;;;;;;;8.48;4.53;;;;;;;21.14;100.00;98779.22;1706669;82;21103;-73
2022/08/16 02:45:33;;;;;;;10.60;4.78;;;;;;;21.25;100.00;98767.20;1687876;84;21051;-72
2022/08/16 02:48:00;;;;;;;7.42;4.37;;;;;;;21.39;100.00;98756.99;1689196;84;21368;-72
2022/08/16 02:50:27;;;;;;;8.18;4.22;;;;;;;21.47;100.00;98763.47;1684832;84;21039;-72
2022/08/16 02:52:54;;;;;;;10.65;4.05;;;;;;;21.51;100.00;98768.46;1687144;83;21592;-73
2022/08/16 02:55:20;;;;;;;7.80;4.03;;;;;;;21.58;100.00;98770.78;1694001;84;21039;-73
2022/08/16 02:57:46;;;;;;;8.75;4.08;;;;;;;21.63;100.00;98770.50;1687183;84;21419;-73
2022/08/16 03:00:14;;;;;;;8.90;4.60;;;;;;;21.61;100.00;98761.73;1690300;83;21211;-72
2022/08/16 03:02:41;;;;;;;8.73;4.20;;;;;;;21.61;100.00;98763.73;1687438;83;21050;-73
2022/08/16 03:05:12;;;;;;;10.00;4.37;;;;;;;21.60;100.00;98760.73;1679826;84;21574;-70
2022/08/16 03:07:39;;;;;;;6.92;4.12;;;;;;;21.62;100.00;98765.31;1689285;83;21134;-70
2022/08/16 03:10:08;;;;;;;7.92;3.98;;;;;;;21.58;100.00;98754.17;1679419;84;21082;-73
2022/08/16 03:12:35;;;;;;;10.00;4.12;;;;;;;21.54;100.00;98754.69;1668571;84;21115;-71
2022/08/16 03:15:01;;;;;;;9.88;4.17;;;;;;;21.55;100.00;98761.02;1705555;83;21071;-77
2022/08/16 03:17:28;;;;;;;8.83;4.42;;;;;;;21.56;100.00;98759.87;1676537;84;21641;-74
2022/08/16 03:19:56;;;;;;;10.28;4.20;;;;;;;21.54;100.00;98759.45;1694523;84;21616;-73
2022/08/16 03:22:23;;;;;;;7.65;4.22;;;;;;;21.53;100.00;98761.99;1682612;84;21086;-75
2022/08/16 03:24:49;;;;;;;13.15;4.95;;;;;;;21.55;100.00;98759.64;1689080;83;21069;-70
2022/08/16 03:27:16;;;;;;;8.18;4.45;;;;;;;21.53;100.00;98758.64;1686667;84;21067;-70
2022/08/16 03:29:43;;;;;;;10.10;4.15;;;;;;;21.50;100.00;98752.45;1696892;84;21078;-72
2022/08/16 03:32:10;;;;;;;8.68;4.10;;;;;;;21.53;100.00;98756.45;1679290;84;21110;-69
2022/08/16 03:34:36;;;;;;;10.15;4.30;;;;;;;21.55;100.00;98756.88;1683970;83;21630;-72
2022/08/16 03:37:03;;;;;;;6.87;3.77;;;;;;;21.50;100.00;98753.04;1671189;84;21987;-71
2022/08/16 03:39:30;;;;;;;14.83;4.67;;;;;;;21.50;100.00;98750.27;1690339;84;21087;-69
2022/08/16 03:41:56;;;;;;;8.40;4.22;;;;;;;21.55;100.00;98755.48;1689870;83;21580;-70
2022/08/16 03:44:22;;;;;;;15.10;4.45;;;;;;;21.53;100.00;98754.48;1677364;85;21086;-70
2022/08/16 03:46:49;;;;;;;8.88;4.30;;;;;;;21.49;100.00;98748.08;1695679;83;21047;-71
2022/08/16 03:49:16;;;;;;;10.65;4.45;;;;;;;21.51;100.00;98744.92;1736742;82;21624;-72
2022/08/16 03:51:45;;;;;;;7.70;4.70;;;;;;;21.54;100.00;98735.91;1711755;82;20993;-73
2022/08/16 03:54:13;;;;;;;9.10;4.42;;;;;;;21.54;100.00;98740.84;1693957;82;21031;-75
2022/08/16 03:58:55;;;;;;;8.10;4.15;;;;;;;21.68;100.00;98735.55;1790948;79;22799;-73
2022/08/16 04:01:23;;;;;;;11.00;4.35;;;;;;;21.60;100.00;98749.08;1710501;81;21023;-70
2022/08/16 04:03:50;;;;;;;8.40;4.37;;;;;;;21.63;100.00;98748.92;1721058;82;21691;-73
2022/08/16 04:06:16;;;;;;;9.73;4.60;;;;;;;21.69;100.00;98756.55;1749104;80;21011;-76
2022/08/16 04:08:43;;;;;;;8.53;4.20;;;;;;;21.71;100.00;98749.27;1736426;82;21110;-73
2022/08/16 04:11:09;;;;;;;7.62;4.50;;;;;;;21.77;100.00;98753.33;1735508;82;20991;-76
2022/08/16 04:13:36;;;;;;;7.45;4.53;;;;;;;21.86;100.00;98755.86;1732537;82;21542;-71
2022/08/16 04:16:03;;;;;;;7.60;4.17;;;;;;;21.84;100.00;98751.48;1735660;80;20979;-72
2022/08/16 04:18:30;;;;;;;9.30;4.83;;;;;;;21.86;100.00;98750.32;1729615;82;21434;-72
2022/08/16 04:20:58;;;;;;;8.98;4.65;;;;;;;21.91;100.00;98748.64;1738272;80;21466;-71
2022/08/16 04:23:26;;;;;;;9.43;4.55;;;;;;;21.97;100.00;98745.77;1742440;80;22471;-72
2022/08/16 04:25:53;;;;;;;10.63;4.92;;;;;;;21.98;100.00;98743.21;1727891;80;21050;-76
2022/08/16 04:28:19;;;;;;;8.83;4.65;;;;;;;22.01;100.00;98729.42;1758543;80;21090;-74
2022/08/16 04:30:46;;;;;;;8.13;4.60;;;;;;;22.07;100.00;98732.69;1750537;80;21045;-73
2022/08/16 04:33:13;;;;;;;11.40;4.72;;;;;;;22.07;100.00;98734.85;1722893;82;21459;-76
2022/08/16 04:35:40;;;;;;;10.80;4.47;;;;;;;22.11;100.00;98733.52;1746166;82;21319;-78
2022/08/16 04:38:07;;;;;;;9.68;4.10;;;;;;;22.20;100.00;98729.34;1718685;82;21071;-75
2022/08/16 04:40:35;;;;;;;13.22;4.75;;;;;;;22.27;100.00;98729.45;1726591;82;21563;-73
2022/08/16 04:43:02;;;;;;;9.18;4.22;;;;;;;22.33;100.00;98724.36;1745193;80;21002;-78
2022/08/16 04:45:29;;;;;;;11.97;4.50;;;;;;;22.42;100.00;98726.88;1721965;83;20992;-75
2022/08/16 04:47:58;;;;;;;10.95;4.72;;;;;;;22.56;100.00;98727.08;1728610;82;21521;-77
2022/08/16 04:50:26;;;;;;;13.62;4.55;;;;;;;22.68;100.00;98730.44;1733895;83;21516;-77
2022/08/16 04:53:04;;;;;;;7.60;4.22;;;;;;;22.79;100.00;98731.97;1734284;83;21018;-77
2022/08/16 04:55:32;;;;;;;9.43;4.53;;;;;;;22.90;100.00;98744.01;1736148;83;21062;-79
2022/08/16 04:57:59;;;;;;;13.15;4.80;;;;;;;22.98;100.00;98744.91;1729830;82;21038;-78
2022/08/16 05:00:32;;;;;;;7.67;3.98;;;;;;;23.09;100.00;98745.25;1715713;82;21051;-77
2022/08/16 05:02:57;;;;;;;7.87;4.62;;;;;;;23.24;100.00;98740.05;1714730;84;21055;-77
2022/08/16 05:05:23;;;;;;;10.28;4.50;;;;;;;23.38;100.00;98742.21;1688907;84;21003;-75
2022/08/16 05:07:50;;;;;;;8.78;4.42;;;;;;;23.48;100.00;98740.16;1715873;82;21565;-77
2022/08/16 05:10:18;;;;;;;12.03;5.35;;;;;;;23.56;100.00;98748.76;1714822;84;21455;-76
2022/08/16 05:12:44;;;;;;;7.85;4.30;;;;;;;23.72;100.00;98756.86;1714758;84;21055;-76
2022/08/16 05:15:11;;;;;;;11.70;4.90;;;;;;;23.72;100.00;98756.86;1714801;84;21149;-77
2022/08/16 05:17:38;;;;;;;7.83;4.60;;;;;;;23.78;100.00;98763.08;1713775;82;21074;-77
2022/08/16 05:20:08;;;;;;;7.47;4.72;;;;;;;23.85;100.00;98744.27;1706302;84;21055;-75
2022/08/16 05:22:38;;;;;;;7.72;4.47;;;;;;;23.96;100.00;98742.39;1706133;84;21055;-74
2022/08/16 05:25:06;;;;;;;9.23;4.80;;;;;;;24.04;100.00;98746.03;1706587;84;21589;-77
2022/08/16 05:27:32;;;;;;;8.30;4.62;;;;;;;24.13;100.00;98753.47;1686998;84;21047;-76
2022/08/16 05:29:59;;;;;;;11.45;5.10;;;;;;;24.21;100.00;98754.55;1714496;84;21089;-72
2022/08/16 05:32:26;;;;;;;12.23;5.30;;;;;;;24.27;100.00;98749.41;1688621;84;21035;-75
2022/08/16 05:34:52;;;;;;;9.28;4.72;;;;;;;24.29;100.00;98756.78;1714655;84;21082;-77
2022/08/16 05:37:22;;;;;;;9.08;4.50;;;;;;;24.30;100.00;98760.38;1729218;82;21054;-74
2022/08/16 05:39:47;;;;;;;11.12;4.83;;;;;;;24.41;100.00;98763.41;1744179;82;21056;-78
2022/08/16 05:42:14;;;;;;;10.38;4.87;;;;;;;24.51;100.00;98767.48;1744450;82;20984;-74
2022/08/16 05:44:41;;;;;;;10.45;4.53;;;;;;;24.56;100.00;98772.07;1744072;82;21523;-75
2022/08/16 05:47:08;;;;;;;11.43;5.50;;;;;;;24.63;100.00;98781.05;1740242;82;21545;-77
2022/08/16 05:49:34;;;;;;;8.05;4.95;;;;;;;24.64;100.00;98785.44;1744214;82;21055;-78
2022/08/16 05:52:01;;;;;;;8.20;4.75;;;;;;;24.62;100.00;98779.48;1744203;82;21025;-75
2022/08/16 05:54:28;;;;;;;7.53;4.30;;;;;;;24.67;100.00;98791.02;1743920;82;21078;-74
2022/08/16 05:56:57;;;;;;;11.97;4.35;;;;;;;24.78;100.00;98791.89;1678575;84;21482;-75
2022/08/16 05:59:24;;;;;;;10.15;4.90;;;;;;;24.83;100.00;98796.33;1741033;82;21122;-74
2022/08/16 06:01:50;;;;;;;11.22;4.65;;;;;;;24.78;100.00;98802.22;1725536;82;21015;-74
2022/08/16 06:04:19;;;;;;;10.60;4.83;;;;;;;24.72;100.00;98795.44;1748646;82;21098;-76
2022/08/16 06:06:47;;;;;;;9.60;4.70;;;;;;;24.72;100.00;98799.61;1751810;82;20980;-76
2022/08/16 06:09:14;;;;;;;7.03;4.30;;;;;;;24.82;100.00;98802.24;1725748;82;21027;-75
2022/08/16 06:11:41;;;;;;;9.85;4.90;;;;;;;24.91;100.00;98790.98;1753426;82;21035;-77
2022/08/16 06:14:07;;;;;;;7.87;4.97;;;;;;;24.96;100.00;98791.22;1725868;82;21054;-75
2022/08/16 06:16:36;;;;;;;11.28;4.87;;;;;;;24.91;100.00;98793.77;1733810;82;21515;-79
2022/08/16 06:19:03;;;;;;;9.73;4.80;;;;;;;24.84;100.00;98788.16;1696693;83;21614;-74
2022/08/16 06:21:31;;;;;;;7.92;4.50;;;;;;;24.86;100.00;98782.22;1723117;83;21087;-80
2022/08/16 06:23:59;;;;;;;11.85;4.92;;;;;;;24.99;100.00;98787.06;1727816;82;21058;-77
2022/08/16 06:26:26;;;;;;;12.45;4.47;;;;;;;25.12;100.00;98788.30;1753319;82;21525;-78
2022/08/16 06:28:52;;;;;;;8.25;4.47;;;;;;;25.23;100.00;98797.52;1753037;82;21059;-75
2022/08/16 06:31:21;;;;;;;9.33;4.78;;;;;;;25.33;100.00;98799.36;1714350;84;21034;-80
2022/08/16 06:33:47;;;;;;;8.58;4.37;;;;;;;25.45;100.00;98786.45;1753090;81;21554;-76
2022/08/16 06:36:16;;;;;;;9.98;4.90;;;;;;;25.50;100.00;98790.25;1725468;82;21498;-79
2022/08/16 06:38:47;;;;;;;9.43;4.67;;;;;;;25.47;100.00;98784.08;1721650;83;21086;-76
2022/08/16 06:41:16;;;;;;;15.08;4.70;;;;;;;25.33;100.00;98773.66;1723055;83;21007;-76
2022/08/16 06:43:42;;;;;;;7.58;4.83;;;;;;;25.27;100.00;98783.59;1724766;82;21590;-79
2022/08/16 06:46:26;;;;;;;10.38;5.03;;;;;;;25.18;100.00;98795.13;1723042;83;21030;-77
2022/08/16 06:48:54;;;;;;;15.88;5.20;;;;;;;25.01;100.00;98810.35;1721989;83;21102;-75
2022/08/16 06:51:21;;;;;;;9.68;4.97;;;;;;;24.75;100.00;98818.31;1723246;83;21002;-76
2022/08/16 06:53:48;;;;;;;11.57;5.67;;;;;;;24.55;100.00;98821.16;1724321;82;21890;-77
2022/08/16 06:56:14;;;;;;;13.18;5.70;;;;;;;24.33;100.00;98836.88;1747550;82;21087;-75
2022/08/16 06:58:42;;;;;;;10.40;5.10;;;;;;;24.15;100.00;98851.22;1743232;82;21102;-72
2022/08/16 07:01:11;;;;;;;11.28;5.55;;;;;;;23.94;100.00;98855.95;1739158;82;21064;-75
2022/08/16 07:03:38;;;;;;;11.20;5.50;;;;;;;23.73;100.00;98880.14;1719775;82;21095;-78
2022/08/16 07:06:06;;;;;;;11.50;5.22;;;;;;;23.47;100.00;98890.52;1709921;84;21075;-80
2022/08/16 07:08:37;;;;;;;12.68;5.90;;;;;;;23.13;100.00;98893.81;1690180;84;21067;-79
2022/08/16 07:11:05;;;;;;;11.88;6.20;;;;;;;22.88;100.00;98912.88;1689680;84;20997;-75
2022/08/16 07:13:35;;;;;;;12.75;6.15;;;;;;;22.61;100.00;98913.96;1716486;82;21052;-77
2022/08/16 07:16:04;;;;;;;11.40;5.67;;;;;;;22.39;100.00;98918.34;1710318;82;21023;-75
2022/08/16 07:18:32;;;;;;;14.73;6.90;;;;;;;22.11;100.00;98931.69;1689641;84;21645;-72
2022/08/16 07:20:59;;;;;;;13.28;6.75;;;;;;;21.73;100.00;98929.73;1703457;82;21025;-75
2022/08/16 07:23:26;;;;;;;12.58;6.58;;;;;;;21.42;100.00;98942.33;1685887;84;21043;-78
2022/08/16 07:25:54;;;;;;;14.90;7.10;;;;;;;21.23;100.00;98950.81;1709202;82;21578;-76
2022/08/16 07:28:21;;;;;;;11.22;6.33;;;;;;;21.18;100.00;98932.31;1709690;84;21610;-75
2022/08/16 07:30:48;;;;;;;12.53;6.20;;;;;;;21.17;100.00;98938.42;1733348;82;21308;-73
2022/08/16 07:33:20;;;;;;;14.53;6.33;;;;;;;21.17;100.00;98934.85;1712494;82;21063;-74
2022/08/16 07:35:47;;;;;;;13.13;6.95;;;;;;;21.16;100.00;98947.88;1710502;82;21007;-74
2022/08/16 07:38:14;;;;;;;16.35;7.00;;;;;;;21.15;100.00;98945.49;1709764;82;21720;-76
2022/08/16 07:40:43;;;;;;;12.05;6.75;;;;;;;21.18;100.00;98959.99;1708997;82;21059;-77
2022/08/16 07:43:09;;;;;;;12.33;6.55;;;;;;;21.18;100.00;98966.91;1718221;81;21505;-77
2022/08/16 07:45:36;;;;;;;13.53;6.55;;;;;;;21.19;100.00;98959.61;1689635;84;21059;-73
2022/08/16 07:48:03;;;;;;;13.72;7.00;;;;;;;21.24;100.00;98965.45;1735429;82;21061;-72
2022/08/16 07:50:30;;;;;;;12.60;6.05;;;;;;;21.26;100.00;98954.23;1704401;83;20983;-75
2022/08/16 07:52:56;;;;;;;12.93;6.60;;;;;;;21.28;100.00;98953.89;1727022;82;21245;-76
2022/08/16 07:55:23;;;;;;;14.03;6.67;;;;;;;21.30;100.00;98956.51;1739249;82;21051;-77
2022/08/16 07:57:49;;;;;;;13.28;6.00;;;;;;;21.30;100.00;98944.05;1730060;82;21036;-76
2022/08/16 08:00:16;;;;;;;9.48;5.80;;;;;;;21.32;100.00;98957.55;1753168;82;21003;-72
2022/08/16 08:02:46;;;;;;;8.95;4.97;;;;;;;21.34;100.00;98952.44;1732847;82;21038;-72
2022/08/16 08:05:15;;;;;;;9.18;4.83;;;;;;;21.37;100.00;98946.17;1723415;82;21101;-73
2022/08/16 08:07:43;;;;;;;6.87;4.45;;;;;;;21.45;100.00;98951.28;1738727;82;21417;-72
2022/08/16 08:10:10;;;;;;;9.10;4.10;;;;;;;21.47;100.00;98952.52;1715312;82;21041;-73
2022/08/16 08:12:38;;;;;;;16.60;4.42;;;;;;;21.51;100.00;98955.37;1752843;80;21114;-74
2022/08/16 08:15:08;;;;;;;12.20;4.80;;;;;;;21.58;100.00;98959.67;1743685;80;21054;-74
2022/08/16 08:17:38;;;;;;;8.03;4.30;;;;;;;21.64;100.00;98958.24;1763958;80;21047;-74
2022/08/16 08:20:07;;;;;;;8.98;4.95;;;;;;;21.61;100.00;98957.59;1728835;82;21038;-73
2022/08/16 08:22:34;;;;;;;8.73;4.80;;;;;;;21.62;100.00;98963.33;1739687;82;20984;-72
2022/08/16 08:25:03;;;;;;;7.25;4.30;;;;;;;21.60;100.00;98967.86;1752303;82;21062;-71
2022/08/16 08:27:30;;;;;;;8.15;4.12;;;;;;;21.61;100.00;98962.52;1724711;82;21015;-75
2022/08/16 08:29:57;;;;;;;9.90;5.03;;;;;;;21.66;100.00;98957.28;1741407;82;21070;-73
2022/08/16 08:32:27;;;;;;;12.00;5.35;;;;;;;21.73;100.00;98952.70;1752798;82;21494;-69
2022/08/16 08:34:54;;;;;;;7.22;4.25;;;;;;;21.81;100.00;98948.91;1752552;82;21565;-73
2022/08/16 08:37:21;;;;;;;9.98;4.85;;;;;;;21.84;100.00;98955.69;1721069;82;21035;-72
2022/08/16 08:39:47;;;;;;;12.93;4.95;;;;;;;21.92;100.00;98951.13;1728543;82;21637;-70
2022/08/16 08:42:14;;;;;;;10.00;4.90;;;;;;;21.97;100.00;98951.62;1722468;82;21002;-71
2022/08/16 08:44:41;;;;;;;9.03;5.08;;;;;;;21.98;100.00;98950.45;1744372;80;21027;-70
2022/08/16 08:47:09;;;;;;;9.80;4.90;;;;;;;21.91;100.00;98955.86;1695628;82;21035;-72
2022/08/16 08:49:36;;;;;;;9.48;4.92;;;;;;;21.91;100.00;98957.25;1707067;82;21050;-71
2022/08/16 08:52:05;;;;;;;9.65;4.92;;;;;;;21.97;100.00;98972.98;1765115;80;21039;-72
2022/08/16 08:54:32;;;;;;;11.93;5.08;;;;;;;22.00;100.00;98967.51;1743361;80;21498;-71
2022/08/16 08:56:59;;;;;;;8.75;4.65;;;;;;;22.01;100.00;98971.89;1746747;82;21043;-72
2022/08/16 08:59:27;;;;;;;11.50;4.12;;;;;;;21.99;100.00;98972.85;1718674;82;21499;-73
2022/08/16 09:01:54;;;;;;;7.75;4.40;;;;;;;21.94;100.00;98981.45;1745210;82;20968;-72
2022/08/16 09:04:22;;;;;;;10.30;4.08;;;;;;;21.96;100.00;98981.09;1746543;82;21059;-74
2022/08/16 09:06:52;;;;;;;7.53;3.27;;;;;;;21.95;100.00;98985.02;1724898;82;20979;-71
2022/08/16 09:09:19;;;;;;;10.10;4.22;;;;;;;21.87;100.00;98990.97;1665107;83;21580;-70
2022/08/16 09:11:48;;;;;;;5.40;3.08;;;;;;;21.77;100.00;98983.24;1696044;83;21458;-72
2022/08/16 09:14:15;;;;;;;6.37;3.15;;;;;;;21.73;100.00;98992.05;1648408;84;21720;-72
2022/08/16 09:16:41;;;;;;;6.78;3.02;;;;;;;21.71;100.00;98992.44;1743888;80;20967;-71
2022/08/16 09:19:08;;;;;;;6.85;3.10;;;;;;;21.69;100.00;98993.94;1778789;80;21051;-72
2022/08/16 09:21:36;;;;;;;5.70;3.02;;;;;;;21.69;100.00;98989.20;1738815;82;21051;-69
2022/08/16 09:24:04;;;;;;;4.53;2.80;;;;;;;21.70;100.00;99000.52;1748674;82;21138;-70
2022/08/16 09:26:31;;;;;;;8.68;3.12;;;;;;;21.66;100.00;99004.37;1719707;82;21050;-68
2022/08/16 09:28:59;;;;;;;5.08;2.90;;;;;;;21.61;100.00;99008.82;1740385;81;21153;-70
2022/08/16 09:31:25;;;;;;;11.40;3.00;;;;;;;21.56;100.00;99010.48;1723942;81;21496;-69
2022/08/16 09:33:52;;;;;;;6.10;2.95;;;;;;;21.49;100.00;99008.94;1719307;82;21608;-69
2022/08/16 09:36:18;;;;;;;7.00;2.83;;;;;;;21.40;100.00;99013.88;1736587;80;21441;-70
2022/08/16 09:38:45;;;;;;;4.78;2.90;;;;;;;21.36;100.00;99014.38;1751661;82;21074;-70
2022/08/16 09:41:11;;;;;;;7.33;3.83;;;;;;;21.37;100.00;99022.88;1725292;82;21596;-71
2022/08/16 09:43:38;;;;;;;6.85;3.90;;;;;;;21.40;100.00;99024.95;1729573;82;21055;-70
2022/08/16 09:46:06;;;;;;;6.72;3.90;;;;;;;21.45;100.00;99031.00;1738314;82;20980;-71
2022/08/16 09:48:36;;;;;;;9.25;3.85;;;;;;;21.51;100.00;99025.98;1748742;82;21063;-69
2022/08/16 09:51:04;;;;;;;5.72;3.15;;;;;;;21.58;100.00;99031.09;1730321;81;20983;-69
2022/08/16 09:53:31;;;;;;;4.17;2.80;;;;;;;21.65;100.00;99038.76;1685615;84;21661;-72
2022/08/16 09:55:58;;;;;;;6.15;2.70;;;;;;;21.72;100.00;99034.77;1730171;82;21009;-71
2022/08/16 09:58:25;;;;;;;6.08;3.00;;;;;;;21.76;100.00;99034.27;1736388;80;21018;-70
2022/08/16 10:00:53;;;;;;;8.63;2.92;;;;;;;21.77;100.00;99042.80;1723860;82;21026;-71
2022/08/16 10:03:20;;;;;;;5.47;2.58;;;;;;;21.82;100.00;99038.38;1722890;83;21640;-72
2022/08/16 10:05:47;;;;;;;5.15;2.95;;;;;;;21.86;100.00;99033.69;1696343;83;21027;-71
2022/08/16 10:08:16;;;;;;;6.67;3.33;;;;;;;21.86;100.00;99037.84;1723000;83;21606;-72
2022/08/16 10:13:10;;;;;;;6.65;3.30;;;;;;;21.87;100.00;99031.72;1742540;82;21070;-70
2022/08/16 10:13:13;;;;;;;6.90;3.35;;;;;;;21.87;100.00;99028.38;1748742;82;21066;-71
2022/08/16 10:15:41;;;;;;;4.70;3.58;;;;;;;21.90;100.00;99020.74;1740583;82;21578;-71
2022/08/16 10:18:08;;;;;;;6.10;3.40;;;;;;;21.98;100.00;99034.17;1737142;82;21069;-71
2022/08/16 10:20:38;;;;;;;5.03;3.52;;;;;;;22.02;100.00;99026.16;1696656;83;21129;-73
2022/08/16 10:23:10;;;;;;;6.20;4.10;;;;;;;22.07;100.00;99035.55;1723076;83;21530;-73
2022/08/16 10:25:40;;;;;;;8.65;4.20;;;;;;;22.08;100.00;99033.58;1722905;83;21059;-71
2022/08/16 10:28:07;;;;;;;6.90;3.80;;;;;;;21.99;100.00;99031.63;1725909;82;21011;-71
2022/08/16 10:30:35;;;;;;;7.00;4.00;;;;;;;21.94;100.00;99031.33;1725757;82;21604;-73
2022/08/16 10:33:03;;;;;;;5.58;3.40;;;;;;;21.97;100.00;99028.40;1723080;83;21035;-73
2022/08/16 10:35:30;;;;;;;6.30;3.45;;;;;;;22.00;100.00;99023.55;1722961;83;21063;-72
2022/08/16 10:37:57;;;;;;;6.12;3.72;;;;;;;22.02;100.00;99021.20;1734123;82;21062;-68
2022/08/16 10:40:23;;;;;;;7.90;4.10;;;;;;;22.06;100.00;99023.46;1751682;82;21034;-68
2022/08/16 10:42:50;;;;;;;8.98;4.08;;;;;;;22.08;100.00;99023.88;1752863;82;21019;-69
2022/08/16 10:45:17;;;;;;;9.65;4.55;;;;;;;22.10;100.00;99025.14;1752408;82;21086;-69
2022/08/16 10:47:44;;;;;;;9.40;4.15;;;;;;;22.18;100.00;99025.48;1733140;82;21035;-68
2022/08/16 10:50:11;;;;;;;7.45;5.03;;;;;;;22.23;100.00;99026.59;1731154;82;21554;-71
2022/08/16 10:52:38;;;;;;;7.70;4.50;;;;;;;22.25;100.00;99027.02;1732528;82;21489;-71
2022/08/16 10:55:10;;;;;;;8.48;4.15;;;;;;;22.28;100.00;99022.12;1725070;82;21589;-71
2022/08/16 10:57:33;;;;;;;7.25;4.30;;;;;;;22.36;100.00;99029.99;1747551;82;21043;-70
2022/08/16 11:00:03;;;;;;;7.75;4.80;;;;;;;22.68;100.00;99028.66;1749042;81;21551;-69
2022/08/16 11:02:29;;;;;;;8.75;4.90;;;;;;;22.68;100.00;99028.66;1705371;83;21050;-71
2022/08/16 11:04:55;;;;;;;6.92;4.60;;;;;;;22.73;100.00;99031.14;1681625;83;21664;-70
2022/08/16 11:07:22;;;;;;;11.88;5.10;;;;;;;22.70;100.00;99031.08;1682293;83;20987;-70
2022/08/16 11:09:48;;;;;;;9.90;4.75;;;;;;;22.62;100.00;99040.40;1648354;84;21070;-69
2022/08/16 11:12:16;;;;;;;8.50;5.15;;;;;;;22.46;100.00;99048.03;1724894;83;20970;-72
2022/08/16 11:14:43;;;;;;;10.00;4.58;;;;;;;22.46;100.00;99048.03;1692181;84;21565;-71
2022/08/16 11:17:12;;;;;;;8.93;4.83;;;;;;;22.41;100.00;99048.31;1694887;83;21528;-70
2022/08/16 11:19:40;;;;;;;7.97;4.90;;;;;;;22.41;100.00;99051.09;1691047;83;21046;-70
2022/08/16 11:22:07;;;;;;;6.53;4.45;;;;;;;22.38;100.00;99055.98;1693191;84;21682;-71
2022/08/16 11:24:38;;;;;;;5.83;4.15;;;;;;;22.31;100.00;99051.91;1686547;84;21069;-69
2022/08/16 11:27:04;;;;;;;10.55;4.92;;;;;;;22.21;100.00;99057.23;1694114;84;21034;-68
2022/08/16 11:29:30;;;;;;;7.50;3.85;;;;;;;22.21;100.00;99057.23;1695606;83;21093;-69